Time;durP1;ratioP1;P1;durP2;ratioP2;P2;SDS_P1;SDS_P2;PMS_P1;PMS_P2;Temp;Humidity;BMP_temperature;BMP_pressure;BME280_temperature;BME280_humidity;BME280_pressure;Samples;Min_cycle;Max_cycle;Signal;HPM_P1;HPM_P2
2023/04/27 00:12:42;;;;;;;;;;;;;;;14.13;53.63;100771.38;4937754;29;19930;-82
2023/04/27 00:20:49;;;;;;;;;;;;;;;;;;;;;
2023/04/27 00:37:08;;;;;;;;;;;;;;;13.89;52.90;100758.44;4942747;28;19922;-82
2023/04/27 00:51:13;;;;;;;;;;;;;;;13.99;52.55;100760.75;4959276;28;19919;-82
2023/04/27 02:08:35;;;;;;;;;;;;;;;;;;;;;
2023/04/27 02:21:22;;;;;;;;;;;;;;;13.60;52.46;100786.66;4976632;23;19930;-82
2023/04/27 02:41:28;;;;;;;;;;;;;;;;;;;;;
2023/04/27 03:09:47;;;;;;;;;;;;;;;13.15;54.39;100819.25;4953942;28;19923;-81
2023/04/27 03:27:33;;;;;;;;;;;;;;;11.85;58.12;100834.34;4963017;28;19945;-83
2023/04/27 03:30:46;;;;;;;;;;;;;;;;;;;;;
2023/04/27 03:34:23;;;;;;;;;;;;;;;12.59;55.26;100834.06;4931748;29;19927;-83
2023/04/27 03:42:04;;;;;;;;;;;;;;;;;;;;;
2023/04/27 03:56:43;;;;;;;;;;;;;;;;;;;;;
2023/04/27 04:00:22;;;;;;;;;;;;;;;12.33;55.87;100833.34;4851208;29;19923;-84
2023/04/27 04:07:20;;;;;;;;;;;;;;;11.49;59.40;100837.31;4850529;29;19916;-82
2023/04/27 04:11:08;;;;;;;;;;;;;;;12.10;57.70;100834.63;4879527;29;19919;-82
2023/04/27 04:14:59;;;;;;;;;;;;;;;;;;;;;
2023/04/27 04:22:09;;;;;;;;;;;;;;;12.57;56.17;100855.41;4881949;29;19916;-83
2023/04/27 04:28:51;;;;;;;;;;;;;;;12.21;56.33;100868.63;4945831;29;19922;-82
2023/04/27 04:32:06;;;;;;;;;;;;;;;;;;;;;
2023/04/27 04:46:46;;;;;;;;;;;;;;;12.30;56.01;100869.41;4933724;29;19918;-84
2023/04/27 04:49:56;;;;;;;;;;;;;;;12.41;56.68;100873.41;4970301;28;20294;-85
2023/04/27 04:52:44;;;;;;;;;;;;;;;12.45;56.05;100879.81;4959594;28;19919;-82
2023/04/27 04:55:33;;;;;;;;;;;;;;;12.38;56.39;100879.53;4953602;29;20382;-83
2023/04/27 04:58:25;;;;;;;;;;;;;;;12.45;56.55;100885.28;4942250;29;19915;-81
2023/04/27 05:01:17;;;;;;;;;;;;;;;12.49;56.32;100897.16;4931082;29;19914;-84
2023/04/27 05:04:07;;;;;;;;;;;;;;;12.49;56.02;100893.63;4949664;28;19919;-82
2023/04/27 05:06:59;;;;;;;;;;;;;;;12.59;55.79;100902.28;4958150;28;19914;-83
2023/04/27 05:09:51;;;;;;;;;;;;;;;12.73;56.11;100902.88;4942035;29;19918;-85
2023/04/27 05:12:43;;;;;;;;;;;;;;;12.88;56.42;100909.75;4936820;29;19919;-84
2023/04/27 05:15:35;;;;;;;;;;;;;;;12.95;56.54;100914.72;4954445;28;19915;-83
2023/04/27 05:18:27;;;;;;;;;;;;;;;12.81;56.53;100918.41;4925066;29;19915;-84
2023/04/27 05:21:19;;;;;;;;;;;;;;;12.90;56.99;100906.69;4955645;28;19922;-84
2023/04/27 05:24:11;;;;;;;;;;;;;;;12.89;57.04;100916.00;4964634;28;19922;-86
2023/04/27 05:27:03;;;;;;;;;;;;;;;13.22;57.59;100908.84;4965949;28;19915;-83
2023/04/27 05:29:53;;;;;;;;;;;;;;;13.30;57.06;100915.41;4957862;28;20656;-83
2023/04/27 05:32:42;;;;;;;;;;;;;;;13.15;58.21;100905.84;4945547;29;19919;-83
2023/04/27 05:35:34;;;;;;;;;;;;;;;13.31;58.16;100917.78;4943502;28;19919;-83
2023/04/27 05:38:26;;;;;;;;;;;;;;;13.43;57.23;100917.91;4966322;28;19915;-84
2023/04/27 05:41:18;;;;;;;;;;;;;;;13.57;56.80;100920.38;4941821;29;19914;-84
2023/04/27 05:44:08;;;;;;;;;;;;;;;13.70;56.75;100930.31;4957830;28;20354;-84
2023/04/27 05:46:59;;;;;;;;;;;;;;;13.78;56.81;100925.91;4940947;29;19915;-84
2023/04/27 05:49:54;;;;;;;;;;;;;;;13.86;58.16;100933.25;4934176;29;19919;-86
2023/04/27 05:52:46;;;;;;;;;;;;;;;13.98;58.00;100930.59;4970355;28;19919;-86
2023/04/27 05:55:38;;;;;;;;;;;;;;;14.16;58.16;100936.75;4937768;29;19915;-86
2023/04/27 05:58:30;;;;;;;;;;;;;;;14.29;57.15;100936.47;4919846;29;20282;-86
2023/04/27 06:01:22;;;;;;;;;;;;;;;14.41;56.61;100943.97;4919512;29;20374;-84
2023/04/27 06:04:14;;;;;;;;;;;;;;;14.52;56.24;100934.22;4961972;28;19919;-85
2023/04/27 06:07:08;;;;;;;;;;;;;;;14.65;55.84;100932.31;4948350;29;19914;-82
2023/04/27 06:10:00;;;;;;;;;;;;;;;14.74;55.34;100936.56;4943809;29;20378;-85
2023/04/27 06:12:52;;;;;;;;;;;;;;;14.81;53.78;100941.50;4938058;29;19919;-85
2023/04/27 06:15:41;;;;;;;;;;;;;;;14.75;53.52;100915.47;4937098;29;19919;-85
2023/04/27 06:18:34;;;;;;;;;;;;;;;14.94;53.78;100951.31;4949622;28;19919;-84
2023/04/27 06:21:26;;;;;;;;;;;;;;;15.16;53.36;100950.13;4919762;29;19915;-89
2023/04/27 06:24:18;;;;;;;;;;;;;;;15.47;51.84;100955.88;4953377;28;19914;-84
2023/04/27 06:27:10;;;;;;;;;;;;;;;15.66;50.72;100960.81;4965733;28;19914;-84
2023/04/27 06:30:02;;;;;;;;;;;;;;;15.79;51.66;100960.47;4976719;28;19914;-84
2023/04/27 06:32:52;;;;;;;;;;;;;;;15.93;51.04;100959.31;4947942;28;19918;-84
2023/04/27 06:35:44;;;;;;;;;;;;;;;16.10;51.11;100959.06;4943556;29;19919;-84
2023/04/27 06:38:36;;;;;;;;;;;;;;;16.21;49.72;100971.13;4942875;29;19915;-83
2023/04/27 06:41:28;;;;;;;;;;;;;;;16.43;48.39;100967.88;4937862;29;19914;-83
2023/04/27 06:44:20;;;;;;;;;;;;;;;16.56;46.68;100972.16;4943826;29;19914;-83
2023/04/27 06:47:12;;;;;;;;;;;;;;;16.72;46.76;100979.69;4937893;28;19922;-80
2023/04/27 06:50:03;;;;;;;;;;;;;;;17.23;44.98;100984.22;4931675;29;19915;-81
2023/04/27 06:52:55;;;;;;;;;;;;;;;17.28;45.00;100986.72;4949076;28;19919;-81
2023/04/27 06:55:47;;;;;;;;;;;;;;;17.20;44.72;100992.38;4947768;28;19915;-81
2023/04/27 06:58:39;;;;;;;;;;;;;;;17.29;43.44;100987.50;4927605;29;19915;-80
2023/04/27 07:01:31;;;;;;;;;;;;;;;17.43;43.96;100988.66;4949332;28;19914;-81
2023/04/27 07:04:23;;;;;;;;;;;;;;;17.48;44.17;100984.84;4921645;29;19918;-80
2023/04/27 07:07:12;;;;;;;;;;;;;;;17.69;43.46;100984.59;4962489;28;19918;-80
2023/04/27 07:10:04;;;;;;;;;;;;;;;17.72;42.61;100984.72;4948560;28;19918;-81
2023/04/27 07:12:56;;;;;;;;;;;;;;;18.03;44.67;100991.31;4938747;29;19919;-82
2023/04/27 07:15:48;;;;;;;;;;;;;;;18.25;44.20;100985.09;4950403;28;19915;-80
2023/04/27 07:18:40;;;;;;;;;;;;;;;18.27;43.69;100977.31;4936449;29;19915;-78
2023/04/27 07:21:32;;;;;;;;;;;;;;;18.48;40.34;100980.50;4936585;29;19915;-76
2023/04/27 07:24:21;;;;;;;;;;;;;;;18.57;40.53;100981.13;4929389;29;19919;-77
2023/04/27 07:27:13;;;;;;;;;;;;;;;18.87;38.54;100980.50;4930664;29;19915;-77
2023/04/27 07:30:05;;;;;;;;;;;;;;;18.78;34.56;100970.53;4944293;29;20386;-77
2023/04/27 07:32:57;;;;;;;;;;;;;;;18.86;36.12;100976.16;4964010;28;19923;-76
2023/04/27 07:35:49;;;;;;;;;;;;;;;18.47;35.63;100980.88;4931532;29;20010;-77
2023/04/27 07:38:41;;;;;;;;;;;;;;;18.65;34.97;100976.53;4927365;29;19915;-78
2023/04/27 07:41:33;;;;;;;;;;;;;;;18.46;34.81;100980.06;4939480;29;19915;-76
2023/04/27 07:44:26;;;;;;;;;;;;;;;18.39;34.70;100975.19;4956172;28;20392;-78
2023/04/27 07:47:18;;;;;;;;;;;;;;;18.32;33.33;100979.78;4937667;29;19922;-76
2023/04/27 07:50:10;;;;;;;;;;;;;;;18.35;34.69;100985.34;4940227;29;19915;-77
2023/04/27 07:53:02;;;;;;;;;;;;;;;18.33;33.73;100986.88;4933494;29;19919;-77
2023/04/27 07:55:53;;;;;;;;;;;;;;;18.44;35.15;100987.88;4948120;28;19914;-79
2023/04/27 07:58:45;;;;;;;;;;;;;;;18.48;33.04;100988.78;4940106;29;19997;-78
2023/04/27 08:01:37;;;;;;;;;;;;;;;18.47;32.18;100989.94;4938236;29;19914;-79
2023/04/27 08:04:29;;;;;;;;;;;;;;;18.44;31.36;100987.88;4937631;29;19917;-79
2023/04/27 08:07:18;;;;;;;;;;;;;;;18.48;31.41;100987.97;4938029;29;19915;-78
2023/04/27 08:10:10;;;;;;;;;;;;;;;18.70;33.57;100990.81;4944207;28;19914;-80
2023/04/27 08:13:02;;;;;;;;;;;;;;;18.66;32.62;100998.22;4937238;29;19919;-79
2023/04/27 08:15:57;;;;;;;;;;;;;;;18.64;36.19;100992.25;4946708;29;19914;-79
2023/04/27 08:18:49;;;;;;;;;;;;;;;18.72;31.22;100999.53;4944002;29;20404;-78
2023/04/27 08:21:41;;;;;;;;;;;;;;;18.77;31.08;100999.22;4929052;28;19915;-78
2023/04/27 08:24:32;;;;;;;;;;;;;;;18.62;30.94;101000.09;4937542;29;19914;-78
2023/04/27 08:27:24;;;;;;;;;;;;;;;18.80;30.51;101003.19;4941148;29;20297;-78
2023/04/27 08:30:16;;;;;;;;;;;;;;;18.84;31.56;100995.81;4970370;28;19915;-78
2023/04/27 08:33:08;;;;;;;;;;;;;;;18.87;30.43;101005.31;4954117;28;19919;-78
2023/04/27 08:36:00;;;;;;;;;;;;;;;18.89;33.05;101016.78;4954998;29;20294;-78
2023/04/27 08:38:52;;;;;;;;;;;;;;;18.83;30.34;101015.47;4954983;29;19914;-78
2023/04/27 08:41:43;;;;;;;;;;;;;;;18.92;29.28;101022.34;4972817;28;20312;-76
2023/04/27 08:44:38;;;;;;;;;;;;;;;19.02;29.07;101029.22;4967969;28;20282;-78
2023/04/27 08:47:30;;;;;;;;;;;;;;;19.17;28.73;101020.06;4954398;28;19915;-78
2023/04/27 08:50:22;;;;;;;;;;;;;;;19.23;29.14;101026.88;4975921;28;19914;-77
2023/04/27 08:53:24;;;;;;;;;;;;;;;19.32;29.97;101032.94;4958391;28;19918;-78
2023/04/27 08:56:16;;;;;;;;;;;;;;;19.32;29.18;101030.19;4962646;28;19938;-78
2023/04/27 08:59:14;;;;;;;;;;;;;;;19.40;29.83;101026.38;4945204;29;19914;-78
2023/04/27 09:02:06;;;;;;;;;;;;;;;19.46;29.44;101027.72;4941212;29;19918;-78
2023/04/27 09:04:58;;;;;;;;;;;;;;;19.40;28.50;101025.63;4931625;29;20310;-78
2023/04/27 09:07:59;;;;;;;;;;;;;;;19.38;28.99;101019.66;4931575;29;19914;-79
2023/04/27 09:10:52;;;;;;;;;;;;;;;19.49;29.42;101020.69;4927468;29;19919;-78
2023/04/27 09:13:44;;;;;;;;;;;;;;;19.45;29.12;101022.59;4919729;29;19919;-77
2023/04/27 09:16:36;;;;;;;;;;;;;;;19.56;27.96;101023.53;4936623;29;19919;-78
2023/04/27 09:19:28;;;;;;;;;;;;;;;19.53;28.64;101016.00;4952450;28;20337;-78
2023/04/27 09:22:20;;;;;;;;;;;;;;;19.52;29.29;101015.22;4918918;29;19919;-78
2023/04/27 09:25:09;;;;;;;;;;;;;;;19.66;29.24;101016.63;4974003;23;19923;-79
2023/04/27 09:28:01;;;;;;;;;;;;;;;19.70;28.46;101010.00;4960761;28;19918;-79
2023/04/27 09:30:57;;;;;;;;;;;;;;;19.66;30.04;101002.84;4946949;28;19915;-79
2023/04/27 09:33:55;;;;;;;;;;;;;;;19.85;30.68;101011.81;4959519;28;19918;-80
2023/04/27 09:36:47;;;;;;;;;;;;;;;19.88;31.18;101002.00;4958561;28;20297;-77
2023/04/27 09:39:37;;;;;;;;;;;;;;;19.93;31.13;101005.22;4952259;29;19915;-81
2023/04/27 09:42:28;;;;;;;;;;;;;;;19.91;28.76;100999.28;4961289;28;19915;-79
2023/04/27 09:45:23;;;;;;;;;;;;;;;19.99;27.69;101005.72;4956402;28;19914;-78
2023/04/27 09:48:13;;;;;;;;;;;;;;;19.88;30.23;101002.00;4957149;29;19914;-78
2023/04/27 09:51:02;;;;;;;;;;;;;;;19.74;31.81;100999.81;4972790;28;19925;-79
2023/04/27 09:53:55;;;;;;;;;;;;;;;19.79;30.50;100995.94;4959633;28;19918;-79
2023/04/27 09:56:56;;;;;;;;;;;;;;;19.94;31.15;101001.31;4963942;28;19914;-79
2023/04/27 09:59:51;;;;;;;;;;;;;;;20.09;31.80;100988.50;4971171;28;19914;-80
2023/04/27 10:02:57;;;;;;;;;;;;;;;20.04;31.50;101000.69;4981192;28;19914;-80
2023/04/27 10:06:02;;;;;;;;;;;;;;;20.08;31.01;100992.44;4976679;28;19914;-79
2023/04/27 10:08:52;;;;;;;;;;;;;;;20.07;31.11;100985.31;4962234;28;19918;-78
2023/04/27 10:11:47;;;;;;;;;;;;;;;20.08;32.14;100984.94;4972496;28;19962;-80
2023/04/27 10:14:48;;;;;;;;;;;;;;;20.09;32.48;100994.03;4951206;28;19931;-78
2023/04/27 10:17:47;;;;;;;;;;;;;;;20.21;33.28;100991.06;4970948;28;19914;-78
2023/04/27 10:20:39;;;;;;;;;;;;;;;20.18;32.67;100980.75;4976128;28;19914;-79
2023/04/27 10:23:31;;;;;;;;;;;;;;;20.19;30.63;100987.06;4963889;28;19915;-78
2023/04/27 10:26:29;;;;;;;;;;;;;;;20.22;28.29;100981.56;4972255;28;19914;-77
2023/04/27 10:29:21;;;;;;;;;;;;;;;20.31;27.34;100976.63;4977333;28;19939;-79
2023/04/27 10:32:20;;;;;;;;;;;;;;;20.40;28.83;100976.34;4980278;28;19922;-78
2023/04/27 10:35:12;;;;;;;;;;;;;;;20.35;28.36;100980.22;4975284;28;19914;-78
2023/04/27 10:38:16;;;;;;;;;;;;;;;20.65;26.79;100984.94;4963561;28;19922;-78
2023/04/27 10:41:14;;;;;;;;;;;;;;;20.64;27.24;100980.56;4950129;28;19914;-79
2023/04/27 10:44:16;;;;;;;;;;;;;;;20.66;27.83;100979.03;4946843;28;19915;-78
2023/04/27 10:47:18;;;;;;;;;;;;;;;20.72;26.68;100976.72;4953127;28;19914;-79
2023/04/27 10:50:07;;;;;;;;;;;;;;;20.81;26.35;100977.22;4962149;28;19918;-80
2023/04/27 10:53:00;;;;;;;;;;;;;;;20.89;27.83;100987.97;4950106;28;20302;-79
2023/04/27 10:55:55;;;;;;;;;;;;;;;20.92;27.03;100981.72;4962265;28;19914;-78
2023/04/27 10:58:47;;;;;;;;;;;;;;;20.93;26.12;100982.47;4952840;28;19914;-79
2023/04/27 11:01:39;;;;;;;;;;;;;;;20.75;28.22;100981.50;4961485;28;19915;-79
2023/04/27 11:04:40;;;;;;;;;;;;;;;20.94;29.56;100984.06;4965488;28;19913;-79
2023/04/27 11:07:32;;;;;;;;;;;;;;;21.00;27.57;100973.47;4944555;29;19918;-79
2023/04/27 11:10:22;;;;;;;;;;;;;;;20.90;28.86;100967.44;4950381;28;19917;-81
2023/04/27 11:13:13;;;;;;;;;;;;;;;20.92;30.11;100965.13;4967971;28;20397;-80
2023/04/27 11:16:03;;;;;;;;;;;;;;;21.02;28.82;100958.09;4962414;28;19914;-83
2023/04/27 11:18:55;;;;;;;;;;;;;;;21.11;28.21;100966.88;4963934;28;19918;-78
2023/04/27 11:21:47;;;;;;;;;;;;;;;21.02;28.56;100958.09;4971614;28;19914;-78
2023/04/27 11:24:46;;;;;;;;;;;;;;;21.18;28.63;100966.97;4964842;28;19914;-77
2023/04/27 11:27:41;;;;;;;;;;;;;;;21.24;28.55;100970.16;4970627;28;19914;-78
2023/04/27 11:30:33;;;;;;;;;;;;;;;21.11;28.44;100966.06;4954411;28;19915;-79
2023/04/27 11:33:25;;;;;;;;;;;;;;;21.10;27.96;100954.22;4967513;28;19918;-78
2023/04/27 11:36:23;;;;;;;;;;;;;;;21.17;28.13;100954.31;4968562;28;19935;-78
2023/04/27 11:39:21;;;;;;;;;;;;;;;21.24;30.31;100953.56;4951854;28;19918;-78
2023/04/27 11:42:19;;;;;;;;;;;;;;;21.22;30.63;100961.47;4956119;28;19914;-78
2023/04/27 11:45:12;;;;;;;;;;;;;;;21.24;30.27;100962.69;4954710;28;19915;-77
2023/04/27 11:48:04;;;;;;;;;;;;;;;21.06;29.33;100970.00;4948932;29;20297;-78
2023/04/27 11:50:58;;;;;;;;;;;;;;;21.02;30.00;100954.53;4955149;28;19915;-78
2023/04/27 11:53:50;;;;;;;;;;;;;;;21.07;29.42;100966.06;4954107;28;19919;-79
2023/04/27 11:56:45;;;;;;;;;;;;;;;20.93;29.92;100963.91;4951895;28;19914;-78
2023/04/27 11:59:37;;;;;;;;;;;;;;;20.92;30.81;100961.56;4948659;29;19918;-78
2023/04/27 12:02:29;;;;;;;;;;;;;;;20.91;30.54;100957.19;4934854;29;19914;-79
2023/04/27 12:05:20;;;;;;;;;;;;;;;20.95;29.55;100957.22;4958921;28;19914;-78
2023/04/27 12:08:12;;;;;;;;;;;;;;;20.98;30.72;100954.47;4978356;28;19914;-79
2023/04/27 12:11:04;;;;;;;;;;;;;;;20.76;31.06;100955.44;4958521;28;19914;-79
2023/04/27 12:13:54;;;;;;;;;;;;;;;20.77;31.56;100951.53;4947197;28;19922;-79
2023/04/27 12:16:44;;;;;;;;;;;;;;;20.82;31.43;100956.72;4954761;28;19923;-78
2023/04/27 12:19:36;;;;;;;;;;;;;;;20.91;32.65;100951.66;4943134;28;19918;-78
2023/04/27 12:22:26;;;;;;;;;;;;;;;20.80;32.77;100959.03;4958902;28;19914;-79
2023/04/27 12:25:18;;;;;;;;;;;;;;;20.90;31.77;100955.59;4965122;28;19914;-79
2023/04/27 12:28:10;;;;;;;;;;;;;;;20.94;31.78;100950.88;4966778;28;20297;-80
2023/04/27 12:31:03;;;;;;;;;;;;;;;20.88;32.77;100955.97;4944155;29;19914;-79
2023/04/27 12:33:55;;;;;;;;;;;;;;;20.78;31.18;100953.88;4956578;28;19922;-79
2023/04/27 12:36:47;;;;;;;;;;;;;;;20.83;30.99;100959.06;4954321;29;19914;-79
2023/04/27 12:39:37;;;;;;;;;;;;;;;20.58;31.85;100958.00;4958335;28;20377;-78
2023/04/27 12:42:29;;;;;;;;;;;;;;;20.59;31.03;100954.06;4954569;29;19915;-79
2023/04/27 12:45:21;;;;;;;;;;;;;;;20.62;31.01;100955.28;4953272;29;19914;-79
2023/04/27 12:48:13;;;;;;;;;;;;;;;20.74;31.05;100960.56;4957152;29;19915;-79
2023/04/27 12:51:05;;;;;;;;;;;;;;;20.80;30.85;100959.03;4954308;29;19919;-79
2023/04/27 12:53:57;;;;;;;;;;;;;;;20.88;30.54;100961.50;4956798;29;19918;-79
2023/04/27 12:56:49;;;;;;;;;;;;;;;20.94;30.65;100953.66;4956601;28;20297;-79
2023/04/27 12:59:41;;;;;;;;;;;;;;;20.85;29.81;100950.41;4954472;29;19915;-79
2023/04/27 13:02:33;;;;;;;;;;;;;;;20.73;31.23;100956.19;4954162;29;19914;-79
2023/04/27 13:05:25;;;;;;;;;;;;;;;20.75;30.09;100948.31;4953098;29;19918;-79
2023/04/27 13:08:17;;;;;;;;;;;;;;;20.87;30.74;100948.06;4939079;29;19914;-78
2023/04/27 13:11:07;;;;;;;;;;;;;;;20.94;29.83;100939.84;4955735;29;19915;-78
2023/04/27 13:13:59;;;;;;;;;;;;;;;20.96;30.80;100943.03;4954351;29;19919;-77
2023/04/27 13:16:51;;;;;;;;;;;;;;;21.04;30.75;100939.13;4958572;28;19975;-79
2023/04/27 13:19:43;;;;;;;;;;;;;;;21.12;30.41;100935.28;4951791;29;19922;-79
2023/04/27 13:22:35;;;;;;;;;;;;;;;21.05;30.95;100931.66;4937947;28;19919;-79
2023/04/27 13:25:24;;;;;;;;;;;;;;;21.01;31.23;100937.16;4946185;28;19915;-79
2023/04/27 13:28:16;;;;;;;;;;;;;;;21.10;30.45;100923.78;4960936;28;19914;-79
2023/04/27 13:31:08;;;;;;;;;;;;;;;21.07;30.82;100924.56;4956468;28;19940;-79
2023/04/27 13:34:00;;;;;;;;;;;;;;;21.09;31.22;100919.44;4952628;28;19919;-79
2023/04/27 13:36:52;;;;;;;;;;;;;;;21.22;31.47;100920.78;4964268;28;19940;-80
2023/04/27 13:39:42;;;;;;;;;;;;;;;21.18;31.43;100922.69;4966758;28;20366;-79
2023/04/27 13:42:34;;;;;;;;;;;;;;;21.17;31.68;100921.13;4950985;28;19915;-79
2023/04/27 13:45:26;;;;;;;;;;;;;;;21.26;30.29;100921.59;4947728;28;19918;-78
2023/04/27 13:48:18;;;;;;;;;;;;;;;21.33;31.66;100923.66;4962853;28;19918;-76
2023/04/27 13:51:10;;;;;;;;;;;;;;;21.28;31.75;100910.94;4963929;28;20397;-78
2023/04/27 13:54:02;;;;;;;;;;;;;;;21.34;32.21;100909.41;4966743;28;19918;-78
2023/04/27 13:56:49;;;;;;;;;;;;;;;21.39;32.20;100910.22;4982176;28;19914;-79
2023/04/27 13:59:39;;;;;;;;;;;;;;;21.27;31.56;100914.91;4978592;28;20597;-77
2023/04/27 14:02:32;;;;;;;;;;;;;;;21.34;31.44;100911.38;4977709;28;19914;-75
2023/04/27 14:05:24;;;;;;;;;;;;;;;21.34;31.23;100906.63;4972329;28;19914;-78
2023/04/27 14:08:14;;;;;;;;;;;;;;;21.37;31.14;100910.63;4973520;28;19914;-77
2023/04/27 14:11:06;;;;;;;;;;;;;;;21.38;31.29;100905.88;4968756;28;19918;-78
2023/04/27 14:13:58;;;;;;;;;;;;;;;21.23;32.32;100903.00;4961413;28;20381;-77
2023/04/27 14:16:50;;;;;;;;;;;;;;;21.24;32.61;100904.59;4970834;28;19914;-80
2023/04/27 14:19:39;;;;;;;;;;;;;;;21.35;32.76;100899.13;4977425;28;19914;-80
2023/04/27 14:22:29;;;;;;;;;;;;;;;21.33;32.31;100896.75;4964061;28;19914;-78
2023/04/27 14:25:21;;;;;;;;;;;;;;;21.15;32.76;100889.50;4956721;28;20317;-80
2023/04/27 14:28:13;;;;;;;;;;;;;;;21.09;32.14;100890.97;4954763;28;19914;-78
2023/04/27 14:31:05;;;;;;;;;;;;;;;21.12;32.59;100893.00;4959837;28;19918;-80
2023/04/27 14:33:54;;;;;;;;;;;;;;;21.07;32.46;100888.63;4961487;28;19922;-77
2023/04/27 14:36:46;;;;;;;;;;;;;;;21.03;32.15;100887.78;4978548;28;19914;-77
2023/04/27 14:39:36;;;;;;;;;;;;;;;21.02;31.59;100877.91;4977134;28;19921;-79
2023/04/27 14:42:28;;;;;;;;;;;;;;;21.18;32.34;100889.50;4980551;28;19914;-79
2023/04/27 14:45:20;;;;;;;;;;;;;;;21.08;31.80;100890.19;4964313;28;19914;-78
2023/04/27 14:48:12;;;;;;;;;;;;;;;21.07;32.42;100888.63;4975683;28;19914;-78
2023/04/27 14:51:04;;;;;;;;;;;;;;;20.86;33.19;100882.91;4948805;28;19914;-79
2023/04/27 14:53:54;;;;;;;;;;;;;;;20.72;33.70;100882.75;4975378;28;19946;-78
2023/04/27 14:56:43;;;;;;;;;;;;;;;20.62;34.54;100877.91;4975877;28;19914;-77
2023/04/27 14:59:36;;;;;;;;;;;;;;;20.52;34.52;100875.84;4955786;28;19918;-78
2023/04/27 15:02:25;;;;;;;;;;;;;;;20.47;33.71;100874.97;4963004;28;20374;-78
2023/04/27 15:05:17;;;;;;;;;;;;;;;20.63;33.65;100876.72;4951227;28;19914;-76
2023/04/27 15:08:09;;;;;;;;;;;;;;;20.45;34.89;100866.28;4951201;28;19915;-79
2023/04/27 15:10:58;;;;;;;;;;;;;;;20.55;33.66;100867.56;4957851;28;19915;-79
2023/04/27 15:13:50;;;;;;;;;;;;;;;20.60;32.61;100871.97;4964962;28;19918;-79
2023/04/27 15:16:42;;;;;;;;;;;;;;;20.69;32.31;100869.69;4973549;28;19914;-79
2023/04/27 15:19:34;;;;;;;;;;;;;;;20.85;33.97;100867.47;4960144;28;19914;-78
2023/04/27 15:22:26;;;;;;;;;;;;;;;20.77;32.73;100869.41;4953967;28;19915;-78
2023/04/27 15:25:18;;;;;;;;;;;;;;;20.77;33.10;100868.59;4955707;28;19914;-78
2023/04/27 15:28:10;;;;;;;;;;;;;;;20.75;32.66;100880.03;4956743;28;19914;-78
2023/04/27 15:31:02;;;;;;;;;;;;;;;20.64;32.94;100873.59;4960678;28;19914;-78
2023/04/27 15:33:51;;;;;;;;;;;;;;;20.75;32.95;100873.69;4955090;29;19922;-78
2023/04/27 15:36:43;;;;;;;;;;;;;;;20.59;33.47;100868.41;4956090;28;19914;-78
2023/04/27 15:39:36;;;;;;;;;;;;;;;20.48;34.17;100862.75;4955596;29;20382;-76
2023/04/27 15:42:28;;;;;;;;;;;;;;;20.41;35.29;100865.47;4954868;29;19914;-77
2023/04/27 15:45:19;;;;;;;;;;;;;;;20.40;36.01;100858.34;4957192;28;19914;-77
2023/04/27 15:48:12;;;;;;;;;;;;;;;20.52;34.07;100862.03;4966488;28;19921;-78
2023/04/27 15:51:04;;;;;;;;;;;;;;;20.59;33.82;100868.41;4965316;28;19914;-77
2023/04/27 15:53:56;;;;;;;;;;;;;;;20.45;35.08;100869.06;4952783;28;19922;-77
2023/04/27 15:56:48;;;;;;;;;;;;;;;20.45;34.61;100863.53;4944214;28;19915;-78
2023/04/27 15:59:40;;;;;;;;;;;;;;;20.64;35.55;100873.59;4950434;28;19914;-78
2023/04/27 16:02:32;;;;;;;;;;;;;;;20.64;34.72;100870.81;4968714;28;19914;-77
2023/04/27 16:05:24;;;;;;;;;;;;;;;20.72;35.39;100877.22;4950591;28;20389;-78
2023/04/27 16:08:16;;;;;;;;;;;;;;;20.56;35.22;100874.69;4957405;28;19918;-79
2023/04/27 16:11:08;;;;;;;;;;;;;;;20.55;35.69;100883.34;4948320;28;19914;-79
2023/04/27 16:13:58;;;;;;;;;;;;;;;20.56;35.54;100882.19;4955027;28;21130;-79
2023/04/27 16:16:50;;;;;;;;;;;;;;;20.43;35.14;100876.13;4943902;28;19918;-78
2023/04/27 16:19:42;;;;;;;;;;;;;;;20.31;35.84;100879.97;4955114;28;20296;-79
2023/04/27 16:22:34;;;;;;;;;;;;;;;20.22;35.57;100879.41;4970227;28;19914;-78
2023/04/27 16:25:26;;;;;;;;;;;;;;;20.24;35.62;100882.59;4957899;28;19913;-78
2023/04/27 16:28:18;;;;;;;;;;;;;;;20.25;35.98;100875.91;4954618;28;19914;-78
2023/04/27 16:31:10;;;;;;;;;;;;;;;20.25;35.77;100889.72;4954205;28;19915;-77
2023/04/27 16:34:02;;;;;;;;;;;;;;;20.34;36.26;100892.19;4957631;28;19919;-78
2023/04/27 16:36:54;;;;;;;;;;;;;;;20.42;36.08;100888.34;4948075;28;19914;-78
2023/04/27 16:39:46;;;;;;;;;;;;;;;20.38;36.29;100891.06;4963047;28;20378;-77
2023/04/27 16:42:36;;;;;;;;;;;;;;;20.43;36.06;100881.66;4949202;28;19914;-77
2023/04/27 16:45:28;;;;;;;;;;;;;;;20.23;37.15;100894.81;4957619;28;20345;-78
2023/04/27 16:48:20;;;;;;;;;;;;;;;20.18;37.30;100897.91;4961443;28;19915;-79
2023/04/27 16:51:09;;;;;;;;;;;;;;;20.19;37.20;100896.72;4963102;28;19914;-79
2023/04/27 16:54:01;;;;;;;;;;;;;;;20.12;37.39;100895.84;4939374;28;21059;-79
2023/04/27 16:56:50;;;;;;;;;;;;;;;20.03;37.69;100891.41;4958036;28;19914;-77
2023/04/27 16:59:42;;;;;;;;;;;;;;;19.93;38.45;100903.09;4951156;28;19915;-78
2023/04/27 17:02:34;;;;;;;;;;;;;;;19.93;39.12;100905.06;4960516;28;19914;-78
2023/04/27 17:05:26;;;;;;;;;;;;;;;19.90;38.83;100903.84;4947619;28;19918;-77
2023/04/27 17:08:18;;;;;;;;;;;;;;;19.97;38.89;100903.13;4953974;28;19914;-78
2023/04/27 17:11:13;;;;;;;;;;;;;;;19.98;39.44;100910.25;4965585;28;19915;-79
2023/04/27 17:14:03;;;;;;;;;;;;;;;19.92;39.62;100907.03;4979485;28;19918;-77
2023/04/27 17:16:52;;;;;;;;;;;;;;;19.92;39.23;100914.50;4977573;28;20369;-77
2023/04/27 17:19:44;;;;;;;;;;;;;;;19.88;39.27;100911.69;4977506;28;19914;-78
2023/04/27 17:22:36;;;;;;;;;;;;;;;19.83;39.61;100905.72;4979125;28;19921;-79
2023/04/27 17:25:26;;;;;;;;;;;;;;;19.73;39.83;100909.13;4975795;28;19914;-79
2023/04/27 17:28:15;;;;;;;;;;;;;;;19.72;39.60;100913.84;4970030;28;19915;-78
2023/04/27 17:31:07;;;;;;;;;;;;;;;19.58;40.20;100916.38;4953131;28;19914;-77
2023/04/27 17:33:59;;;;;;;;;;;;;;;19.54;40.09;100904.50;4966856;28;19922;-78
2023/04/27 17:36:51;;;;;;;;;;;;;;;19.61;39.97;100921.16;4953951;28;19919;-77
2023/04/27 17:39:43;;;;;;;;;;;;;;;19.45;40.02;100915.00;4945308;28;19915;-78
2023/04/27 17:42:32;;;;;;;;;;;;;;;19.47;40.43;100918.97;4967336;28;19914;-78
2023/04/27 17:45:24;;;;;;;;;;;;;;;19.51;39.83;100924.53;4952758;28;19915;-78
2023/04/27 17:48:11;;;;;;;;;;;;;;;19.34;40.44;100917.56;4949246;29;20377;-82
2023/04/27 17:50:58;;;;;;;;;;;;;;;19.33;39.45;100917.94;4949956;28;19914;-79
2023/04/27 17:53:50;;;;;;;;;;;;;;;19.31;39.12;100921.03;4939453;29;19918;-80
2023/04/27 17:56:42;;;;;;;;;;;;;;;19.17;38.92;100921.63;4953503;28;19923;-81
2023/04/27 17:59:34;;;;;;;;;;;;;;;19.14;38.92;100921.56;4950157;28;19914;-78
2023/04/27 18:02:26;;;;;;;;;;;;;;;18.94;39.12;100925.53;4948524;28;19918;-77
2023/04/27 18:05:18;;;;;;;;;;;;;;;18.98;39.09;100927.19;4958356;28;19914;-78
2023/04/27 18:08:10;;;;;;;;;;;;;;;18.99;38.71;100922.47;4964399;28;19914;-79
2023/04/27 18:11:00;;;;;;;;;;;;;;;18.86;38.75;100926.56;4945838;28;19922;-79
2023/04/27 18:13:52;;;;;;;;;;;;;;;18.78;38.65;100925.63;4949750;28;19922;-80
2023/04/27 18:16:41;;;;;;;;;;;;;;;18.75;38.56;100931.88;4950837;28;19915;-78
2023/04/27 18:19:30;;;;;;;;;;;;;;;18.65;38.85;100922.25;4944063;28;20885;-80
2023/04/27 18:22:22;;;;;;;;;;;;;;;18.66;38.56;100923.84;4954001;28;19915;-79
2023/04/27 18:25:12;;;;;;;;;;;;;;;18.71;38.96;100929.03;4954914;28;19922;-78
2023/04/27 18:28:04;;;;;;;;;;;;;;;18.54;38.88;100936.97;4949402;28;19918;-78
2023/04/27 18:30:56;;;;;;;;;;;;;;;18.45;39.36;100939.91;4951712;28;19919;-79
2023/04/27 18:33:44;;;;;;;;;;;;;;;18.41;39.36;100946.50;4953628;28;19919;-76
2023/04/27 18:36:32;;;;;;;;;;;;;;;18.36;39.47;100950.34;4947639;28;19918;-79
2023/04/27 18:39:22;;;;;;;;;;;;;;;18.32;39.39;100949.47;4948826;28;19915;-78
2023/04/27 18:42:13;;;;;;;;;;;;;;;18.17;40.09;100945.63;4953806;28;19914;-80